createdAt,value
2017-09-26T00:01:18.843Z,99.90
2017-09-26T00:03:46.311Z,99.90
2017-09-26T00:06:13.787Z,99.90
2017-09-26T00:08:42.032Z,99.90
2017-09-26T00:11:09.522Z,99.90
2017-09-26T00:13:37.766Z,99.90
2017-09-26T00:16:05.240Z,99.90
2017-09-26T00:18:32.724Z,99.90
2017-09-26T00:21:00.223Z,99.90
2017-09-26T00:23:27.703Z,99.90
2017-09-26T00:25:55.183Z,99.90
2017-09-26T00:28:23.444Z,99.90
2017-09-26T00:30:50.929Z,99.90
2017-09-26T00:33:19.172Z,99.90
2017-09-26T00:35:46.660Z,99.90
2017-09-26T00:38:16.461Z,99.90
2017-09-26T00:40:43.988Z,99.90
2017-09-26T00:43:11.475Z,99.90
2017-09-26T00:45:38.946Z,99.90
2017-09-26T00:48:07.207Z,99.90
2017-09-26T00:50:34.676Z,99.90
2017-09-26T00:53:02.923Z,99.90
2017-09-26T00:55:30.391Z,99.90
2017-09-26T00:57:57.866Z,99.90
2017-09-26T01:00:25.336Z,99.90
2017-09-26T01:02:53.573Z,99.90
2017-09-26T01:05:25.647Z,99.90
2017-09-26T01:07:53.165Z,99.90
2017-09-26T01:10:20.604Z,99.90
2017-09-26T01:12:48.897Z,99.90
2017-09-26T01:15:16.368Z,99.90
2017-09-26T01:17:43.847Z,99.90
2017-09-26T01:20:11.323Z,99.90
2017-09-26T01:22:38.820Z,99.90
2017-09-26T01:25:06.288Z,99.90
2017-09-26T01:27:33.770Z,99.90
2017-09-26T01:30:01.245Z,99.90
2017-09-26T01:32:28.710Z,99.90
2017-09-26T01:34:56.191Z,99.90
2017-09-26T01:37:24.438Z,99.90
2017-09-26T01:39:51.906Z,99.90
2017-09-26T01:42:19.394Z,99.90
2017-09-26T01:44:47.648Z,99.90
2017-09-26T01:47:15.113Z,99.90
2017-09-26T01:49:42.595Z,99.90
2017-09-26T01:52:10.835Z,99.90
2017-09-26T01:54:38.334Z,99.90
2017-09-26T01:57:13.449Z,99.90
2017-09-26T01:59:43.499Z,99.90
2017-09-26T02:02:10.961Z,99.90
2017-09-26T02:04:38.435Z,99.90
2017-09-26T02:07:05.895Z,99.90
2017-09-26T02:09:33.379Z,99.90
2017-09-26T02:12:00.850Z,99.90
2017-09-26T02:14:28.328Z,99.90
2017-09-26T02:16:56.568Z,99.90
2017-09-26T02:19:24.055Z,99.90
2017-09-26T02:21:52.305Z,99.90
2017-09-26T02:24:19.827Z,99.90
2017-09-26T02:26:47.303Z,99.90
2017-09-26T02:29:14.780Z,99.90
2017-09-26T02:31:42.256Z,99.90
2017-09-26T02:34:09.757Z,99.90
2017-09-26T02:39:24.942Z,99.90
2017-09-26T02:41:52.412Z,99.90
2017-09-26T02:44:19.892Z,99.90
2017-09-26T02:46:47.387Z,99.90
2017-09-26T02:49:14.869Z,99.90
2017-09-26T02:51:43.100Z,99.90
2017-09-26T02:54:10.605Z,99.90
2017-09-26T02:56:38.847Z,99.90
2017-09-26T02:59:06.334Z,99.90
2017-09-26T03:01:34.584Z,99.90
2017-09-26T03:04:02.063Z,99.90
2017-09-26T03:06:30.318Z,99.90
2017-09-26T03:08:57.787Z,99.90
2017-09-26T03:11:25.273Z,99.90
2017-09-26T03:13:52.745Z,99.90
2017-09-26T03:16:20.227Z,99.90
2017-09-26T03:18:47.692Z,99.90
2017-09-26T03:21:15.179Z,99.90
2017-09-26T03:23:42.652Z,99.90
2017-09-26T03:26:10.904Z,99.90
2017-09-26T03:28:38.376Z,99.90
2017-09-26T03:31:06.616Z,99.90
2017-09-26T03:33:34.094Z,99.90
2017-09-26T03:36:01.580Z,99.90
2017-09-26T03:38:29.819Z,99.90
2017-09-26T03:40:57.296Z,99.90
2017-09-26T03:43:24.774Z,99.90
2017-09-26T03:45:53.039Z,99.90
2017-09-26T03:48:21.296Z,99.90
2017-09-26T03:50:48.777Z,99.90
2017-09-26T03:53:17.024Z,99.90
2017-09-26T03:55:44.497Z,99.90
2017-09-26T03:58:11.976Z,99.90
2017-09-26T04:00:40.216Z,99.90
2017-09-26T04:03:07.695Z,99.90
2017-09-26T04:05:35.188Z,99.90
2017-09-26T04:08:04.144Z,99.90
2017-09-26T04:10:31.648Z,99.90
2017-09-26T04:12:59.135Z,99.90
2017-09-26T04:15:26.603Z,99.90
2017-09-26T04:17:54.091Z,99.90
2017-09-26T04:20:22.329Z,99.90
2017-09-26T04:22:49.864Z,99.90
2017-09-26T04:25:17.328Z,99.90
2017-09-26T04:27:44.809Z,99.90
2017-09-26T04:30:12.289Z,99.90
2017-09-26T04:32:39.773Z,99.90
2017-09-26T04:35:08.004Z,99.90
2017-09-26T04:37:35.489Z,99.90
2017-09-26T04:40:02.955Z,99.90
2017-09-26T04:42:31.225Z,99.90
2017-09-26T04:44:58.699Z,99.90
2017-09-26T04:47:26.937Z,99.90
2017-09-26T04:49:54.423Z,99.90
2017-09-26T04:52:21.895Z,99.90
2017-09-26T04:54:50.136Z,99.90
2017-09-26T04:57:17.608Z,99.90
2017-09-26T04:59:45.101Z,99.90
2017-09-26T05:02:12.584Z,99.90
2017-09-26T05:04:40.068Z,99.90
2017-09-26T05:07:07.528Z,99.90
2017-09-26T05:09:35.008Z,99.90
2017-09-26T05:12:03.256Z,99.90
2017-09-26T05:14:30.737Z,99.90
2017-09-26T05:16:58.213Z,99.90
2017-09-26T05:19:26.472Z,99.90
2017-09-26T05:21:53.955Z,99.90
2017-09-26T05:24:22.204Z,99.90
2017-09-26T05:26:49.672Z,99.90
2017-09-26T05:29:17.916Z,99.90
2017-09-26T05:31:45.384Z,99.90
2017-09-26T05:34:12.867Z,99.90
2017-09-26T05:36:46.212Z,99.90
2017-09-26T05:39:13.696Z,99.90
2017-09-26T05:41:41.169Z,99.90
2017-09-26T05:44:08.644Z,99.90
2017-09-26T05:46:36.953Z,99.90
2017-09-26T05:49:04.439Z,99.90
2017-09-26T05:51:31.908Z,99.90
2017-09-26T05:53:59.384Z,99.90
2017-09-26T05:56:26.876Z,99.90
2017-09-26T05:58:54.351Z,99.90
2017-09-26T06:01:21.836Z,99.90
2017-09-26T06:03:49.311Z,99.90
2017-09-26T06:06:16.797Z,99.90
2017-09-26T06:08:45.110Z,99.90
2017-09-26T06:11:12.658Z,99.90
2017-09-26T06:13:40.132Z,99.90
2017-09-26T06:16:07.616Z,99.90
2017-09-26T06:18:35.079Z,99.90
2017-09-26T06:21:02.567Z,99.90
2017-09-26T06:23:30.822Z,99.90
2017-09-26T06:25:58.300Z,99.90
2017-09-26T06:28:26.545Z,99.90
2017-09-26T06:30:54.028Z,99.90
2017-09-26T06:33:22.339Z,99.90
2017-09-26T06:35:49.812Z,99.90
2017-09-26T06:38:17.309Z,99.90
2017-09-26T06:40:44.789Z,99.90
2017-09-26T06:43:13.025Z,99.90
2017-09-26T06:45:40.521Z,99.90
2017-09-26T06:48:08.758Z,99.90
2017-09-26T06:50:36.269Z,99.90
2017-09-26T06:53:03.751Z,99.90
2017-09-26T06:55:31.227Z,99.90
2017-09-26T06:57:58.725Z,99.90
2017-09-26T07:00:26.213Z,99.90
2017-09-26T07:02:53.684Z,99.90
2017-09-26T07:05:21.175Z,99.90
2017-09-26T07:07:48.650Z,99.90
2017-09-26T07:10:16.120Z,99.90
2017-09-26T07:12:44.368Z,99.90
2017-09-26T07:15:11.840Z,99.90
2017-09-26T07:17:39.320Z,99.90
2017-09-26T07:20:07.556Z,99.90
2017-09-26T07:22:35.041Z,99.90
2017-09-26T07:25:02.510Z,99.90
2017-09-26T07:27:30.753Z,99.90
2017-09-26T07:29:59.056Z,99.90
2017-09-26T07:32:27.318Z,99.90
2017-09-26T07:34:54.792Z,99.90
2017-09-26T07:37:23.049Z,99.90
2017-09-26T07:39:50.522Z,99.90
2017-09-26T07:42:18.002Z,99.90
2017-09-26T07:44:46.266Z,99.90
2017-09-26T07:47:14.516Z,99.90
2017-09-26T07:49:41.992Z,99.90
2017-09-26T07:52:09.503Z,99.90
2017-09-26T07:54:36.960Z,99.90
2017-09-26T07:57:04.428Z,99.90
2017-09-26T07:59:31.914Z,99.90
2017-09-26T08:01:59.547Z,99.90
2017-09-26T08:04:27.171Z,99.90
2017-09-26T08:06:55.660Z,99.90
2017-09-26T08:09:23.330Z,99.90
2017-09-26T08:11:50.804Z,99.90
2017-09-26T08:14:18.357Z,99.90
2017-09-26T08:16:45.836Z,99.90
2017-09-26T08:19:13.377Z,99.90
2017-09-26T08:21:40.844Z,99.90
2017-09-26T08:24:08.328Z,99.90
2017-09-26T08:26:35.800Z,99.90
2017-09-26T08:29:03.299Z,99.90
2017-09-26T08:31:30.768Z,99.90
2017-09-26T08:33:58.986Z,99.90
2017-09-26T08:36:26.517Z,99.90
2017-09-26T08:38:53.992Z,99.90
2017-09-26T08:41:22.237Z,99.90
2017-09-26T08:43:49.717Z,99.90
2017-09-26T08:46:17.190Z,99.90
2017-09-26T08:48:44.673Z,99.90
2017-09-26T08:51:12.148Z,99.90
2017-09-26T08:53:40.400Z,99.90
2017-09-26T08:56:07.867Z,99.90
2017-09-26T08:58:36.116Z,99.90
2017-09-26T09:01:03.596Z,99.90
2017-09-26T09:03:31.077Z,99.90
2017-09-26T09:05:58.560Z,99.90
2017-09-26T09:08:26.044Z,99.90
2017-09-26T09:10:53.519Z,99.90
2017-09-26T09:13:20.994Z,99.90
2017-09-26T09:15:48.480Z,99.90
2017-09-26T09:18:15.954Z,99.90
2017-09-26T09:20:43.441Z,99.90
2017-09-26T09:23:10.912Z,99.90
2017-09-26T09:25:38.397Z,99.90
2017-09-26T09:28:06.636Z,99.90
2017-09-26T09:30:34.118Z,99.90
2017-09-26T09:33:01.592Z,99.90
2017-09-26T09:35:29.858Z,99.90
2017-09-26T09:37:57.329Z,99.90
2017-09-26T09:40:25.571Z,99.90
2017-09-26T09:42:53.045Z,99.90
2017-09-26T09:45:21.308Z,99.90
2017-09-26T09:47:48.784Z,99.90
2017-09-26T09:50:16.298Z,99.90
2017-09-26T09:52:43.768Z,99.90
2017-09-26T09:55:11.236Z,99.90
2017-09-26T09:57:38.711Z,99.90
2017-09-26T10:00:06.217Z,99.70
2017-09-26T10:02:33.704Z,99.90
2017-09-26T10:05:01.173Z,99.50
2017-09-26T10:07:28.647Z,99.70
2017-09-26T10:09:56.125Z,99.20
2017-09-26T10:12:24.375Z,99.00
2017-09-26T10:14:51.870Z,99.00
2017-09-26T10:17:20.112Z,99.10
2017-09-26T10:19:47.591Z,99.10
2017-09-26T10:22:15.835Z,99.10
2017-09-26T10:24:43.312Z,99.10
2017-09-26T10:27:10.798Z,99.60
2017-09-26T10:29:39.031Z,98.90
2017-09-26T10:32:06.508Z,98.80
2017-09-26T10:34:33.987Z,98.50
2017-09-26T10:37:02.228Z,97.70
2017-09-26T10:39:29.691Z,97.60
2017-09-26T10:41:57.631Z,98.70
2017-09-26T10:44:25.190Z,98.70
2017-09-26T10:46:52.672Z,98.80
2017-09-26T10:49:20.172Z,99.50
2017-09-26T10:51:48.423Z,98.40
2017-09-26T10:54:15.896Z,98.40
2017-09-26T10:56:44.286Z,98.20
2017-09-26T10:59:12.528Z,97.80
2017-09-26T11:01:40.016Z,97.80
2017-09-26T11:04:08.252Z,98.00
2017-09-26T11:06:35.719Z,97.90
2017-09-26T11:09:03.196Z,98.00
2017-09-26T11:11:30.667Z,97.80
2017-09-26T11:13:58.925Z,97.10
2017-09-26T11:16:26.405Z,97.10
2017-09-26T11:18:54.654Z,97.10
2017-09-26T11:21:22.132Z,97.00
2017-09-26T11:23:50.384Z,96.90
2017-09-26T11:26:17.848Z,96.80
2017-09-26T11:28:46.157Z,96.60
2017-09-26T11:31:14.432Z,96.50
2017-09-26T11:33:42.685Z,95.70
2017-09-26T11:36:10.156Z,95.70
2017-09-26T11:38:37.652Z,95.50
2017-09-26T11:41:05.129Z,95.50
2017-09-26T11:43:32.619Z,95.10
2017-09-26T11:46:00.865Z,95.40
2017-09-26T11:48:28.353Z,95.40
2017-09-26T11:50:56.610Z,94.00
2017-09-26T11:53:24.092Z,94.00
2017-09-26T11:55:52.376Z,93.70
2017-09-26T11:58:19.862Z,93.60
2017-09-26T12:00:47.368Z,93.00
2017-09-26T12:03:14.852Z,92.50
2017-09-26T12:05:42.352Z,92.80
2017-09-26T12:08:09.843Z,93.40
2017-09-26T12:10:37.338Z,93.20
2017-09-26T12:16:09.562Z,92.60
2017-09-26T12:18:49.405Z,92.60
2017-09-26T12:21:17.853Z,92.80
2017-09-26T12:23:46.093Z,92.50
2017-09-26T12:26:13.575Z,92.50
2017-09-26T12:28:41.816Z,91.90
2017-09-26T12:31:09.296Z,91.60
2017-09-26T12:33:36.773Z,91.70
2017-09-26T12:36:05.023Z,92.60
2017-09-26T12:38:33.272Z,92.10
2017-09-26T12:41:00.756Z,92.10
2017-09-26T12:43:28.232Z,91.90
2017-09-26T12:45:55.712Z,91.80
2017-09-26T12:48:23.950Z,92.20
2017-09-26T12:50:51.427Z,92.20
2017-09-26T12:53:18.897Z,92.20
2017-09-26T12:55:47.164Z,91.70
2017-09-26T12:58:15.077Z,91.70
2017-09-26T13:00:42.545Z,92.60
2017-09-26T13:03:10.020Z,92.10
2017-09-26T13:05:37.501Z,92.70
2017-09-26T13:08:04.996Z,93.50
2017-09-26T13:10:32.475Z,93.20
2017-09-26T13:12:59.948Z,93.00
2017-09-26T13:15:27.429Z,93.10
2017-09-26T13:17:54.905Z,93.10
2017-09-26T13:20:23.149Z,93.40
2017-09-26T13:22:50.628Z,93.60
2017-09-26T13:25:18.091Z,93.70
2017-09-26T13:27:45.568Z,92.50
2017-09-26T13:30:13.800Z,92.90
2017-09-26T13:32:41.276Z,92.60
2017-09-26T13:35:08.745Z,92.80
2017-09-26T13:37:36.219Z,92.60
2017-09-26T13:40:04.457Z,93.30
2017-09-26T13:42:31.949Z,93.30
2017-09-26T13:45:00.190Z,93.40
2017-09-26T13:47:27.732Z,93.30
2017-09-26T13:49:55.205Z,92.10
2017-09-26T13:52:22.684Z,93.40
2017-09-26T13:54:50.150Z,92.10
2017-09-26T13:57:17.631Z,92.20
2017-09-26T13:59:45.876Z,92.70
2017-09-26T14:02:13.364Z,92.70
2017-09-26T14:04:41.604Z,92.50
2017-09-26T14:07:09.076Z,92.50
2017-09-26T14:09:36.561Z,91.90
2017-09-26T14:12:04.808Z,91.80
2017-09-26T14:14:32.281Z,91.70
2017-09-26T14:17:00.511Z,93.10
2017-09-26T14:19:27.995Z,92.80
2017-09-26T14:21:55.464Z,91.30
2017-09-26T14:24:22.942Z,92.20
2017-09-26T14:26:51.189Z,91.70
2017-09-26T14:29:18.667Z,91.70
2017-09-26T14:31:46.902Z,92.10
2017-09-26T14:34:14.389Z,92.10
2017-09-26T14:36:41.868Z,92.50
2017-09-26T14:39:10.112Z,92.20
2017-09-26T14:41:37.586Z,92.20
2017-09-26T14:44:05.080Z,92.00
2017-09-26T14:46:32.577Z,92.50
2017-09-26T14:49:00.055Z,92.50
2017-09-26T14:51:27.527Z,92.90
2017-09-26T14:53:55.001Z,92.50
2017-09-26T14:56:23.239Z,93.10
2017-09-26T14:58:50.716Z,93.10
2017-09-26T15:01:18.220Z,92.80
2017-09-26T15:03:45.687Z,93.00
2017-09-26T15:06:13.159Z,93.00
2017-09-26T15:08:40.649Z,93.00
2017-09-26T15:11:08.129Z,92.50
2017-09-26T15:13:36.507Z,93.70
2017-09-26T15:16:04.739Z,93.60
2017-09-26T15:18:32.220Z,93.50
2017-09-26T15:20:59.704Z,93.60
2017-09-26T15:23:27.961Z,93.60
2017-09-26T15:25:55.428Z,93.50
2017-09-26T15:28:23.677Z,93.50
2017-09-26T15:30:51.156Z,93.50
2017-09-26T15:33:18.638Z,93.90
2017-09-26T15:35:47.305Z,93.50
2017-09-26T15:38:14.779Z,93.50
2017-09-26T15:40:43.015Z,93.80
2017-09-26T15:43:10.491Z,93.80
2017-09-26T15:45:37.964Z,93.80
2017-09-26T15:48:06.216Z,94.30
2017-09-26T15:50:33.685Z,94.30
2017-09-26T15:53:01.147Z,93.70
2017-09-26T15:55:29.427Z,94.30
2017-09-26T15:57:57.664Z,94.90
2017-09-26T16:00:25.139Z,94.50
2017-09-26T16:02:52.616Z,94.70
2017-09-26T16:05:20.094Z,94.30
2017-09-26T16:07:48.329Z,95.00
2017-09-26T16:10:15.808Z,95.00
2017-09-26T16:12:43.289Z,95.20
2017-09-26T16:15:11.540Z,95.60
2017-09-26T16:17:39.015Z,95.60
2017-09-26T16:20:07.260Z,95.70
2017-09-26T16:22:34.732Z,95.70
2017-09-26T16:25:02.220Z,95.70
2017-09-26T16:27:30.452Z,96.10
2017-09-26T16:29:57.941Z,96.10
2017-09-26T16:32:26.176Z,96.40
2017-09-26T16:34:53.657Z,96.30
2017-09-26T16:37:21.132Z,96.50
2017-09-26T16:39:49.380Z,97.30
2017-09-26T16:42:16.860Z,97.10
2017-09-26T16:44:44.328Z,97.40
2017-09-26T16:47:12.592Z,97.70
2017-09-26T16:49:40.061Z,97.60
2017-09-26T16:52:08.295Z,97.60
2017-09-26T16:54:35.776Z,97.60
2017-09-26T16:57:11.552Z,97.80
2017-09-26T16:59:39.795Z,98.00
2017-09-26T17:02:07.277Z,97.90
2017-09-26T17:04:34.744Z,98.30
2017-09-26T17:07:02.999Z,98.40
2017-09-26T17:09:30.472Z,98.30
2017-09-26T17:11:57.951Z,98.60
2017-09-26T17:14:26.188Z,98.70
2017-09-26T17:16:53.675Z,98.70
2017-09-26T17:19:21.914Z,98.90
2017-09-26T17:21:49.388Z,98.90
2017-09-26T17:24:16.865Z,99.10
2017-09-26T17:26:45.118Z,99.20
2017-09-26T17:29:12.595Z,99.10
2017-09-26T17:31:40.839Z,99.40
2017-09-26T17:34:09.090Z,99.30
2017-09-26T17:36:36.560Z,99.30
2017-09-26T17:39:04.040Z,99.20
2017-09-26T17:41:31.516Z,99.40
2017-09-26T17:43:58.991Z,99.30
2017-09-26T17:46:27.253Z,99.00
2017-09-26T17:48:54.735Z,99.00
2017-09-26T17:51:22.976Z,98.80
2017-09-26T17:53:50.459Z,98.80
2017-09-26T17:56:18.688Z,98.30
2017-09-26T17:58:46.171Z,98.20
2017-09-26T18:01:13.643Z,98.40
2017-09-26T18:03:41.124Z,97.80
2017-09-26T18:06:09.360Z,97.50
2017-09-26T18:08:36.866Z,97.50
2017-09-26T18:11:04.340Z,97.80
2017-09-26T18:13:31.831Z,97.70
2017-09-26T18:15:59.304Z,97.50
2017-09-26T18:18:26.781Z,97.20
2017-09-26T18:20:55.025Z,97.70
2017-09-26T18:23:22.498Z,97.60
2017-09-26T18:25:49.977Z,97.60
2017-09-26T18:28:18.220Z,97.50
2017-09-26T18:30:45.722Z,97.50
2017-09-26T18:33:13.180Z,97.40
2017-09-26T18:35:41.427Z,97.50
2017-09-26T18:38:08.893Z,97.50
2017-09-26T18:40:36.373Z,97.60
2017-09-26T18:43:04.612Z,97.90
2017-09-26T18:45:32.095Z,97.80
2017-09-26T18:48:00.329Z,98.50
2017-09-26T18:50:27.808Z,98.50
2017-09-26T18:52:55.285Z,98.50
2017-09-26T18:55:23.528Z,98.50
2017-09-26T18:57:50.999Z,98.50
2017-09-26T19:00:18.477Z,98.40
2017-09-26T19:02:45.944Z,98.70
2017-09-26T19:05:15.114Z,98.80
2017-09-26T19:07:42.609Z,98.80
2017-09-26T19:10:10.856Z,99.50
2017-09-26T19:12:38.321Z,99.50
2017-09-26T19:15:05.796Z,99.70
2017-09-26T19:17:34.051Z,99.90
2017-09-26T19:20:01.547Z,99.90
2017-09-26T19:22:29.028Z,99.90
2017-09-26T19:24:56.504Z,99.90
2017-09-26T19:27:23.988Z,99.90
2017-09-26T19:29:51.456Z,99.90
2017-09-26T19:32:18.939Z,99.90
2017-09-26T19:34:46.402Z,99.90
2017-09-26T19:37:13.886Z,99.90
2017-09-26T19:39:41.347Z,99.90
2017-09-26T19:42:08.832Z,99.90
2017-09-26T19:44:36.308Z,99.90
2017-09-26T19:47:04.564Z,99.90
2017-09-26T19:49:32.036Z,99.90
2017-09-26T19:51:59.512Z,99.90
2017-09-26T19:54:27.777Z,99.90
2017-09-26T19:56:56.023Z,99.90
2017-09-26T19:59:23.500Z,99.90
2017-09-26T20:01:50.985Z,99.90
2017-09-26T20:04:19.220Z,99.90
2017-09-26T20:06:46.703Z,99.90
2017-09-26T20:09:14.936Z,99.90
2017-09-26T20:11:42.412Z,99.90
2017-09-26T20:14:09.879Z,99.90
2017-09-26T20:16:37.364Z,99.90
2017-09-26T20:19:05.609Z,99.90
2017-09-26T20:21:33.112Z,99.90
2017-09-26T20:24:00.587Z,99.90
2017-09-26T20:26:28.074Z,99.90
2017-09-26T20:28:55.543Z,99.90
2017-09-26T20:31:23.021Z,99.90
2017-09-26T20:33:50.495Z,99.90
2017-09-26T20:36:18.741Z,99.90
2017-09-26T20:38:46.219Z,99.90
2017-09-26T20:41:14.504Z,99.90
2017-09-26T20:43:42.748Z,99.90
2017-09-26T20:46:14.396Z,99.90
2017-09-26T20:48:41.873Z,99.90
2017-09-26T20:51:09.344Z,99.90
2017-09-26T20:53:36.816Z,99.90
2017-09-26T20:56:05.076Z,99.90
2017-09-26T20:58:32.560Z,99.90
2017-09-26T21:01:00.034Z,99.90
2017-09-26T21:03:27.540Z,99.90
2017-09-26T21:05:55.013Z,99.90
2017-09-26T21:08:22.487Z,99.90
2017-09-26T21:10:50.735Z,99.90
2017-09-26T21:13:18.215Z,99.90
2017-09-26T21:15:46.452Z,99.90
2017-09-26T21:18:13.940Z,99.90
2017-09-26T21:20:42.182Z,99.90
2017-09-26T21:23:09.693Z,99.90
2017-09-26T21:25:38.958Z,99.90
2017-09-26T21:28:15.010Z,99.90
2017-09-26T21:30:44.521Z,99.90
2017-09-26T21:33:14.576Z,99.90
2017-09-26T21:35:43.105Z,99.90
2017-09-26T21:38:13.409Z,99.90
2017-09-26T21:40:41.900Z,99.90
2017-09-26T21:43:11.482Z,99.90
2017-09-26T21:45:39.744Z,99.90
2017-09-26T21:48:08.774Z,99.90
2017-09-26T21:50:36.281Z,99.90
2017-09-26T21:53:03.743Z,99.90
2017-09-26T21:55:31.228Z,99.90
2017-09-26T21:57:58.697Z,99.90
2017-09-26T22:00:26.174Z,99.90
2017-09-26T22:02:53.643Z,99.90
2017-09-26T22:05:21.131Z,99.90
2017-09-26T22:07:48.600Z,99.90
2017-09-26T22:10:21.726Z,99.90
2017-09-26T22:12:49.199Z,99.90
2017-09-26T22:15:16.681Z,99.90
2017-09-26T22:17:44.464Z,99.90
2017-09-26T22:20:11.932Z,99.90
2017-09-26T22:22:40.206Z,99.90
2017-09-26T22:25:07.683Z,99.90
2017-09-26T22:27:35.919Z,99.90
2017-09-26T22:30:03.401Z,99.90
2017-09-26T22:32:30.872Z,99.90
2017-09-26T22:34:59.120Z,99.90
2017-09-26T22:37:26.595Z,99.90
2017-09-26T22:39:54.865Z,99.90
2017-09-26T22:42:22.348Z,99.90
2017-09-26T22:44:50.588Z,99.90
2017-09-26T22:47:18.067Z,99.90
2017-09-26T22:49:46.308Z,99.90
2017-09-26T22:52:13.813Z,99.90
2017-09-26T22:54:42.060Z,99.90
2017-09-26T22:57:09.660Z,99.90
2017-09-26T22:59:37.144Z,99.90
2017-09-26T23:02:04.644Z,99.90
2017-09-26T23:04:32.908Z,99.90
2017-09-26T23:07:00.575Z,99.90
2017-09-26T23:09:28.044Z,99.90
2017-09-26T23:11:56.428Z,99.90
2017-09-26T23:14:23.943Z,99.90
2017-09-26T23:16:51.420Z,99.90
2017-09-26T23:19:18.916Z,99.90
2017-09-26T23:21:47.185Z,99.90
2017-09-26T23:24:14.652Z,99.90
2017-09-26T23:26:42.897Z,99.90
2017-09-26T23:29:10.389Z,99.90
2017-09-26T23:31:38.646Z,99.90
2017-09-26T23:34:06.124Z,99.90
2017-09-26T23:36:34.434Z,99.90
2017-09-26T23:39:01.938Z,99.90
2017-09-26T23:41:29.421Z,99.90
2017-09-26T23:43:56.940Z,99.90
2017-09-26T23:46:24.403Z,99.90
2017-09-26T23:48:51.892Z,99.90
2017-09-26T23:51:20.128Z,99.90
2017-09-26T23:53:47.611Z,99.90
2017-09-26T23:56:15.085Z,99.90
2017-09-26T23:58:43.332Z,99.90
